Time;durP1;ratioP1;P1;durP2;ratioP2;P2;SDS_P1;SDS_P2;PMS_P1;PMS_P2;Temp;Humidity;BMP_temperature;BMP_pressure;BME280_temperature;BME280_humidity;BME280_pressure;Samples;Min_cycle;Max_cycle;Signal;HPM_P1;HPM_P2
2023/10/16 00:02:13;;;;;;;4.83;1.10;;;8.80;99.90;;;;;;4976598;28;20290;-77
2023/10/16 00:04:45;;;;;;;3.83;1.00;;;8.80;99.90;;;;;;4976052;28;20314;-76
2023/10/16 00:07:13;;;;;;;6.30;1.10;;;8.80;99.90;;;;;;4976575;28;20347;-77
2023/10/16 00:09:40;;;;;;;7.27;1.10;;;8.80;99.90;;;;;;4976328;28;20421;-76
2023/10/16 00:12:07;;;;;;;4.60;0.80;;;8.70;99.90;;;;;;4976245;28;20844;-76
2023/10/16 00:14:35;;;;;;;4.43;0.80;;;8.80;99.90;;;;;;4976003;28;20309;-76
2023/10/16 00:17:03;;;;;;;4.23;0.97;;;8.80;99.90;;;;;;4976214;28;20326;-77
2023/10/16 00:19:33;;;;;;;6.43;1.10;;;8.80;99.90;;;;;;4975755;28;20297;-76
2023/10/16 00:22:02;;;;;;;6.37;1.00;;;8.80;99.90;;;;;;4976078;28;20377;-76
2023/10/16 00:24:28;;;;;;;7.77;0.93;;;8.70;99.90;;;;;;4974853;28;20373;-75
2023/10/16 00:26:55;;;;;;;4.43;1.47;;;8.70;99.90;;;;;;4976355;28;20318;-77
2023/10/16 00:29:23;;;;;;;5.30;1.20;;;8.70;99.90;;;;;;4976123;28;20138;-77
2023/10/16 00:31:52;;;;;;;4.00;0.90;;;8.70;99.90;;;;;;4975579;28;20534;-76
2023/10/16 00:34:22;;;;;;;4.77;1.37;;;8.70;99.90;;;;;;4975982;28;20293;-77
2023/10/16 00:36:54;;;;;;;3.47;0.87;;;8.70;99.90;;;;;;4974972;28;20297;-76
2023/10/16 00:39:25;;;;;;;5.20;1.03;;;8.70;99.90;;;;;;4975938;28;20272;-76
2023/10/16 00:41:51;;;;;;;5.43;1.23;;;8.70;99.90;;;;;;4975635;28;20325;-78
2023/10/16 00:44:17;;;;;;;8.13;1.80;;;8.70;99.90;;;;;;4974463;28;20301;-78
2023/10/16 00:46:46;;;;;;;8.07;1.30;;;8.70;99.90;;;;;;4974122;28;20399;-78
2023/10/16 00:49:13;;;;;;;7.00;1.00;;;8.80;99.90;;;;;;4975722;28;20050;-79
2023/10/16 00:51:38;;;;;;;8.03;1.30;;;8.80;99.90;;;;;;4975369;28;20282;-79
2023/10/16 00:54:18;;;;;;;5.70;1.07;;;8.80;99.90;;;;;;4975620;28;20278;-79
2023/10/16 00:56:46;;;;;;;5.73;1.00;;;8.80;99.90;;;;;;4975290;28;20043;-79
2023/10/16 00:59:18;;;;;;;6.63;1.00;;;8.80;99.90;;;;;;4975554;28;20298;-79
2023/10/16 01:01:44;;;;;;;4.90;0.97;;;8.80;99.90;;;;;;4975315;28;20282;-79
2023/10/16 01:04:11;;;;;;;7.80;1.00;;;8.80;99.90;;;;;;4975327;28;20294;-79
2023/10/16 01:06:37;;;;;;;5.07;1.40;;;8.90;99.90;;;;;;4975046;28;20293;-78
2023/10/16 01:09:09;;;;;;;4.53;0.90;;;8.90;99.90;;;;;;4975259;28;20278;-78
2023/10/16 01:11:39;;;;;;;7.67;1.27;;;8.90;99.90;;;;;;4974944;28;20274;-78
2023/10/16 01:14:05;;;;;;;7.70;1.20;;;8.90;99.90;;;;;;4974998;28;20816;-78
2023/10/16 01:16:32;;;;;;;6.57;1.00;;;8.90;99.90;;;;;;4975250;28;20285;-79
2023/10/16 01:19:00;;;;;;;4.80;1.10;;;8.90;99.90;;;;;;4974875;28;20282;-78
2023/10/16 01:21:31;;;;;;;5.80;0.90;;;8.90;99.90;;;;;;4974612;28;20777;-78
2023/10/16 01:24:02;;;;;;;5.03;1.27;;;8.90;99.90;;;;;;4974658;28;20307;-79
2023/10/16 01:26:29;;;;;;;4.30;1.10;;;8.90;99.90;;;;;;4975204;28;20321;-78
2023/10/16 01:28:55;;;;;;;6.73;1.33;;;8.90;99.90;;;;;;4974868;28;20293;-78
2023/10/16 01:31:21;;;;;;;7.70;1.10;;;8.90;99.90;;;;;;4974885;28;20289;-79
2023/10/16 01:33:48;;;;;;;7.13;0.97;;;8.80;99.90;;;;;;4974631;28;20101;-79
2023/10/16 01:36:14;;;;;;;7.53;1.70;;;8.90;99.90;;;;;;4974709;28;20309;-79
2023/10/16 01:38:40;;;;;;;7.03;1.50;;;8.90;99.90;;;;;;4974355;28;20706;-78
2023/10/16 01:41:07;;;;;;;7.30;1.40;;;8.80;99.90;;;;;;4974762;28;20130;-79
2023/10/16 01:43:34;;;;;;;4.97;1.23;;;8.80;99.90;;;;;;4974602;28;20369;-79
2023/10/16 01:46:20;;;;;;;9.20;1.93;;;8.80;99.90;;;;;;4974444;28;20297;-79
2023/10/16 01:48:46;;;;;;;5.70;1.10;;;8.70;99.90;;;;;;4973760;28;20298;-79
2023/10/16 01:51:19;;;;;;;6.00;1.10;;;8.70;99.90;;;;;;4974452;28;20809;-79
2023/10/16 01:53:47;;;;;;;5.30;0.90;;;8.70;99.90;;;;;;4974540;28;20666;-79
2023/10/16 01:56:13;;;;;;;3.47;1.00;;;8.70;99.90;;;;;;4974752;28;20348;-79
2023/10/16 01:58:44;;;;;;;5.03;1.10;;;8.60;99.90;;;;;;4974426;28;20290;-79
2023/10/16 02:01:28;;;;;;;4.77;1.10;;;8.60;99.90;;;;;;4974365;28;20286;-79
2023/10/16 02:03:53;;;;;;;4.23;1.03;;;8.60;99.90;;;;;;4974213;28;20346;-79
2023/10/16 02:06:19;;;;;;;4.90;1.20;;;8.60;99.90;;;;;;4974401;28;20317;-79
2023/10/16 02:08:47;;;;;;;6.60;1.10;;;8.50;99.90;;;;;;4972981;28;20065;-78
2023/10/16 02:11:16;;;;;;;7.13;1.20;;;8.50;99.90;;;;;;4974306;28;20297;-79
2023/10/16 02:13:42;;;;;;;5.60;1.40;;;8.50;99.90;;;;;;4974009;28;20754;-76
2023/10/16 02:16:10;;;;;;;5.90;1.30;;;8.40;99.90;;;;;;4974124;28;20281;-79
2023/10/16 02:18:37;;;;;;;3.83;1.40;;;8.50;99.90;;;;;;4974320;28;20380;-79
2023/10/16 02:21:12;;;;;;;4.40;1.00;;;8.40;99.90;;;;;;4972936;28;20789;-79
2023/10/16 02:23:39;;;;;;;5.40;1.30;;;8.40;99.90;;;;;;4974229;28;20298;-79
2023/10/16 02:26:10;;;;;;;4.10;1.03;;;8.40;99.90;;;;;;4973860;28;20313;-79
2023/10/16 02:28:46;;;;;;;3.80;1.00;;;8.40;99.90;;;;;;4974024;28;20321;-79
2023/10/16 02:31:19;;;;;;;5.97;1.00;;;8.40;99.90;;;;;;4974425;28;20283;-80
2023/10/16 02:34:12;;;;;;;6.97;1.20;;;8.50;99.90;;;;;;4973912;28;20282;-79
2023/10/16 02:36:39;;;;;;;5.77;1.23;;;8.50;99.90;;;;;;4974087;28;20655;-80
2023/10/16 02:39:08;;;;;;;5.00;0.90;;;8.60;99.90;;;;;;4973695;28;20274;-80
2023/10/16 02:41:34;;;;;;;5.97;1.50;;;8.60;99.90;;;;;;4974061;28;20286;-80
2023/10/16 02:44:01;;;;;;;5.23;1.17;;;8.60;99.90;;;;;;4972527;28;20631;-79
2023/10/16 02:46:27;;;;;;;6.80;0.90;;;8.60;99.90;;;;;;4974251;28;20285;-79
2023/10/16 02:48:55;;;;;;;5.33;1.20;;;8.70;99.90;;;;;;4973658;28;20290;-79
2023/10/16 02:51:21;;;;;;;7.17;1.03;;;8.70;99.90;;;;;;4973911;28;20101;-81
2023/10/16 02:53:49;;;;;;;5.67;1.00;;;8.70;99.90;;;;;;4973436;28;20286;-79
2023/10/16 02:56:15;;;;;;;5.07;1.10;;;8.70;99.90;;;;;;4973987;28;20050;-81
2023/10/16 02:58:54;;;;;;;4.90;1.53;;;8.70;99.90;;;;;;4956991;28;20294;-81
2023/10/16 03:01:21;;;;;;;8.30;1.83;;;8.70;99.90;;;;;;4976089;28;20055;-81
2023/10/16 03:03:48;;;;;;;5.57;1.17;;;8.80;99.90;;;;;;4977360;28;20314;-78
2023/10/16 03:06:15;;;;;;;5.43;1.20;;;8.70;99.90;;;;;;4976390;28;20770;-80
2023/10/16 03:08:48;;;;;;;7.63;1.27;;;8.70;99.90;;;;;;4977687;28;20750;-80
2023/10/16 03:11:14;;;;;;;6.37;1.40;;;8.70;99.90;;;;;;4976495;28;20345;-80
2023/10/16 03:13:43;;;;;;;3.93;1.13;;;8.70;99.90;;;;;;4977327;28;20829;-81
2023/10/16 03:16:16;;;;;;;7.43;1.53;;;8.70;99.90;;;;;;4976171;28;20290;-80
2023/10/16 03:18:47;;;;;;;6.97;1.30;;;8.70;99.90;;;;;;4976175;28;20304;-81
2023/10/16 03:23:47;;;;;;;7.57;1.20;;;8.80;99.90;;;;;;4977158;28;20300;-80
2023/10/16 03:26:22;;;;;;;3.93;1.27;;;8.80;99.90;;;;;;4976862;28;20349;-77
2023/10/16 03:28:48;;;;;;;7.38;1.55;;;8.80;99.90;;;;;;4977212;28;20286;-78
2023/10/16 03:31:14;;;;;;;6.53;1.80;;;8.80;99.90;;;;;;4976757;28;20046;-77
2023/10/16 03:33:40;;;;;;;4.30;1.30;;;8.90;99.90;;;;;;4977364;28;20769;-78
2023/10/16 03:36:09;;;;;;;5.03;1.70;;;8.90;99.90;;;;;;4976843;28;20062;-78
2023/10/16 03:38:40;;;;;;;5.27;1.27;;;8.90;99.90;;;;;;4977203;28;20282;-78
2023/10/16 03:41:40;;;;;;;6.83;1.50;;;8.90;99.90;;;;;;4976816;28;20578;-78
2023/10/16 03:44:07;;;;;;;4.47;1.00;;;8.90;99.90;;;;;;4973674;28;20352;-78
2023/10/16 03:46:33;;;;;;;8.43;1.30;;;8.90;99.90;;;;;;4977131;28;20650;-78
2023/10/16 03:49:00;;;;;;;8.67;1.50;;;8.90;99.90;;;;;;4976630;28;20278;-77
2023/10/16 03:51:26;;;;;;;4.93;1.13;;;9.00;99.90;;;;;;4976795;28;20059;-78
2023/10/16 03:53:56;;;;;;;5.93;1.67;;;9.00;99.90;;;;;;4976761;28;20298;-78
2023/10/16 03:56:22;;;;;;;4.60;1.10;;;9.00;99.90;;;;;;4976710;28;20337;-78
2023/10/16 03:58:49;;;;;;;7.03;1.47;;;9.00;99.90;;;;;;4976754;28;20284;-78
2023/10/16 04:01:23;;;;;;;4.07;1.10;;;9.00;99.90;;;;;;4976449;28;20282;-78
2023/10/16 04:03:58;;;;;;;7.85;1.30;;;9.00;99.90;;;;;;4976695;28;20633;-78
2023/10/16 04:06:26;;;;;;;5.93;1.65;;;9.00;99.90;;;;;;4976533;28;20054;-77
2023/10/16 04:08:59;;;;;;;6.17;1.30;;;8.90;99.90;;;;;;4976351;28;20055;-78
2023/10/16 04:11:25;;;;;;;6.67;1.30;;;8.90;99.90;;;;;;4976418;28;20622;-78
2023/10/16 04:13:52;;;;;;;12.93;1.30;;;8.90;99.90;;;;;;4976352;28;20714;-78
2023/10/16 04:16:30;;;;;;;4.97;1.23;;;8.90;99.90;;;;;;4976024;28;20361;-78
2023/10/16 04:21:43;;;;;;;5.53;1.40;;;8.80;99.90;;;;;;4976117;28;20283;-77
2023/10/16 04:29:49;;;;;;;6.90;1.63;;;8.70;99.90;;;;;;4963812;28;20298;-78
2023/10/16 04:35:32;;;;;;;8.02;1.23;;;8.70;99.90;;;;;;4975817;28;20279;-78
2023/10/16 04:38:53;;;;;;;4.17;1.37;;;8.70;99.90;;;;;;4975674;28;20410;-79
2023/10/16 04:46:23;;;;;;;5.43;1.17;;;8.70;99.90;;;;;;4974433;28;20294;-79
2023/10/16 04:48:50;;;;;;;7.13;1.10;;;8.70;99.90;;;;;;4974985;28;20654;-78
2023/10/16 04:51:17;;;;;;;6.63;1.07;;;8.70;99.90;;;;;;4975461;28;20638;-78
2023/10/16 04:53:58;;;;;;;8.23;1.50;;;8.70;99.90;;;;;;4975618;28;20762;-77
2023/10/16 04:59:37;;;;;;;8.17;1.40;;;8.80;99.90;;;;;;4932160;28;20309;-79
2023/10/16 05:02:33;;;;;;;8.03;1.47;;;8.80;99.90;;;;;;4980455;28;20294;-79
2023/10/16 05:05:32;;;;;;;7.90;1.57;;;8.90;99.90;;;;;;4994666;28;20297;-79
2023/10/16 05:07:53;;;;;;;7.93;2.07;;;8.90;99.90;;;;;;4995073;28;20347;-79
2023/10/16 05:10:51;;;;;;;9.50;2.23;;;8.90;99.90;;;;;;4994768;28;20366;-78
2023/10/16 05:13:24;;;;;;;3.40;1.13;;;8.90;99.90;;;;;;4994285;28;20304;-78
2023/10/16 05:18:51;;;;;;;7.35;1.70;;;8.90;99.90;;;;;;4994746;28;20050;-79
2023/10/16 06:16:02;;;;;;;4.90;1.70;;;8.80;99.90;;;;;;4995833;28;20273;-83
2023/10/16 06:18:30;;;;;;;7.80;2.30;;;8.80;99.90;;;;;;4993577;28;20372;-83
2023/10/16 06:21:00;;;;;;;7.90;2.60;;;8.90;99.90;;;;;;4993827;28;20116;-83
2023/10/16 06:23:28;;;;;;;6.40;1.90;;;8.80;99.90;;;;;;4993431;28;20309;-83
2023/10/16 06:25:55;;;;;;;8.30;1.90;;;8.90;99.90;;;;;;4993651;28;20297;-83
2023/10/16 06:28:21;;;;;;;7.30;1.97;;;8.90;99.90;;;;;;4993697;28;20344;-83
2023/10/16 06:30:47;;;;;;;6.73;2.33;;;8.90;99.90;;;;;;4992627;28;20297;-83
2023/10/16 06:33:14;;;;;;;7.23;2.40;;;8.90;99.90;;;;;;4993582;28;20130;-83
2023/10/16 06:35:41;;;;;;;5.03;1.80;;;9.00;99.90;;;;;;4994935;28;20289;-83
2023/10/16 06:38:11;;;;;;;8.60;2.07;;;9.10;99.90;;;;;;4997819;28;20308;-83
2023/10/16 06:40:40;;;;;;;5.33;1.83;;;9.00;99.90;;;;;;4997761;28;20291;-83
2023/10/16 06:43:09;;;;;;;7.63;2.40;;;9.10;99.90;;;;;;4997620;28;20367;-83
2023/10/16 06:45:49;;;;;;;8.13;2.30;;;9.10;99.90;;;;;;4997573;28;20312;-83
2023/10/16 06:48:15;;;;;;;6.97;2.20;;;9.10;99.90;;;;;;4997592;28;20312;-82
2023/10/16 06:50:54;;;;;;;5.13;1.80;;;9.20;99.90;;;;;;4997721;28;20285;-83
2023/10/16 06:53:22;;;;;;;4.80;1.80;;;9.20;99.90;;;;;;4997190;28;20360;-83
2023/10/16 06:55:50;;;;;;;4.77;1.70;;;9.20;99.90;;;;;;4997397;28;20304;-83
2023/10/16 06:58:18;;;;;;;9.07;2.00;;;9.30;99.90;;;;;;4997260;28;20289;-82
2023/10/16 07:00:47;;;;;;;6.27;1.60;;;9.30;99.90;;;;;;4997623;28;20335;-82
2023/10/16 07:03:13;;;;;;;5.87;1.60;;;9.30;99.90;;;;;;4997435;28;20289;-83
2023/10/16 07:05:42;;;;;;;7.87;2.00;;;9.30;99.90;;;;;;4997099;28;20622;-83
2023/10/16 07:08:19;;;;;;;6.73;1.97;;;9.30;99.90;;;;;;4997015;28;20289;-83
2023/10/16 07:10:49;;;;;;;5.43;1.83;;;9.40;99.90;;;;;;4997278;28;20707;-83
2023/10/16 07:13:26;;;;;;;7.40;1.87;;;9.40;99.90;;;;;;4997029;28;20358;-77
2023/10/16 07:16:01;;;;;;;7.10;1.50;;;9.40;99.90;;;;;;4997335;28;20281;-83
2023/10/16 07:18:27;;;;;;;9.23;1.75;;;9.50;99.90;;;;;;4995944;28;20285;-82
2023/10/16 07:23:34;;;;;;;5.23;1.70;;;9.50;99.90;;;;;;4996576;28;20297;-82
2023/10/16 07:26:10;;;;;;;6.80;1.70;;;9.60;99.90;;;;;;4997112;28;20317;-83
2023/10/16 07:28:37;;;;;;;7.13;1.30;;;9.60;99.90;;;;;;4996834;28;20317;-83
2023/10/16 07:31:05;;;;;;;6.20;1.50;;;9.60;99.90;;;;;;4996624;28;20290;-83
2023/10/16 07:33:32;;;;;;;9.90;1.90;;;9.70;99.90;;;;;;4996788;28;20289;-82
2023/10/16 07:35:59;;;;;;;9.17;1.80;;;9.70;99.90;;;;;;4996989;28;20270;-83
2023/10/16 07:38:26;;;;;;;8.87;2.47;;;9.80;99.90;;;;;;4996476;28;20825;-82
2023/10/16 07:40:59;;;;;;;7.30;2.07;;;9.90;99.90;;;;;;4995631;28;20619;-83
2023/10/16 07:43:32;;;;;;;5.70;1.77;;;9.90;99.90;;;;;;4996469;28;20282;-82
2023/10/16 07:48:40;;;;;;;6.37;2.37;;;10.10;99.90;;;;;;4995506;28;20369;-82
2023/10/16 07:51:07;;;;;;;6.93;2.17;;;10.20;99.90;;;;;;4996522;28;20277;-83
2023/10/16 07:53:34;;;;;;;8.33;2.27;;;10.20;99.90;;;;;;4996209;28;20285;-83
2023/10/16 07:56:02;;;;;;;8.50;1.90;;;10.30;99.90;;;;;;4996208;28;20285;-83
2023/10/16 07:58:34;;;;;;;9.13;2.03;;;10.40;99.90;;;;;;4995107;28;20796;-83
2023/10/16 08:03:36;;;;;;;13.67;2.20;;;10.50;99.90;;;;;;4996123;28;20282;-83
2023/10/16 08:06:05;;;;;;;5.30;1.70;;;10.60;99.90;;;;;;4996013;28;20297;-83
2023/10/16 08:08:38;;;;;;;8.20;1.53;;;10.60;99.90;;;;;;4995758;28;20289;-83
2023/10/16 08:11:18;;;;;;;9.93;2.00;;;10.60;99.90;;;;;;4996216;28;20372;-83
2023/10/16 08:13:53;;;;;;;9.40;1.80;;;10.60;99.90;;;;;;4995942;28;20277;-83
2023/10/16 08:16:24;;;;;;;10.73;2.00;;;10.60;99.90;;;;;;4996110;28;20282;-83
2023/10/16 08:18:52;;;;;;;7.07;2.13;;;10.60;99.90;;;;;;4994838;28;20057;-83
2023/10/16 08:21:25;;;;;;;7.30;2.27;;;10.60;99.90;;;;;;4995739;28;20316;-84
2023/10/16 08:23:56;;;;;;;6.80;1.77;;;10.60;99.90;;;;;;4996186;28;20293;-83
2023/10/16 08:26:28;;;;;;;8.43;1.80;;;10.60;99.90;;;;;;4998588;28;20292;-84
2023/10/16 08:34:40;;;;;;;9.87;2.17;;;10.60;99.90;;;;;;4995649;28;20364;-84
2023/10/16 08:37:08;;;;;;;11.63;1.90;;;10.60;99.90;;;;;;4995650;28;20289;-85
2023/10/16 08:39:37;;;;;;;7.17;1.73;;;10.60;99.90;;;;;;4995403;28;20359;-85
2023/10/16 08:42:19;;;;;;;6.10;1.90;;;10.70;99.90;;;;;;4995464;28;20282;-86
2023/10/16 08:44:51;;;;;;;13.70;3.03;;;10.70;99.90;;;;;;4995476;28;20306;-86
2023/10/16 08:47:26;;;;;;;5.07;1.60;;;10.80;99.90;;;;;;4994722;28;20678;-86
2023/10/16 08:49:55;;;;;;;5.23;1.67;;;10.80;99.90;;;;;;4995447;28;20273;-86
2023/10/16 08:52:23;;;;;;;9.17;2.23;;;10.80;99.90;;;;;;4994353;28;20654;-86
2023/10/16 08:57:25;;;;;;;14.20;2.33;;;11.00;99.90;;;;;;4995381;28;20684;-86
2023/10/16 08:59:52;;;;;;;11.07;2.50;;;11.00;99.90;;;;;;4994632;28;20294;-86
2023/10/16 09:02:20;;;;;;;7.20;1.90;;;11.10;99.90;;;;;;4994230;28;20286;-87
2023/10/16 09:04:52;;;;;;;14.70;2.20;;;11.10;99.90;;;;;;4994874;28;20306;-87
2023/10/16 09:07:19;;;;;;;10.90;3.13;;;11.20;99.90;;;;;;4995379;28;20425;-87
2023/10/16 09:09:53;;;;;;;10.53;3.17;;;11.30;99.90;;;;;;4994798;28;20799;-87
2023/10/16 09:12:27;;;;;;;14.07;3.15;;;11.40;99.90;;;;;;4995253;28;20331;-87
2023/10/16 09:15:05;;;;;;;12.02;2.60;;;11.40;99.90;;;;;;4995116;28;20050;-87
2023/10/16 09:17:34;;;;;;;12.47;2.30;;;11.40;99.90;;;;;;4994706;28;20049;-88
2023/10/16 09:20:03;;;;;;;9.13;2.20;;;11.40;99.90;;;;;;4994942;28;20376;-88
2023/10/16 09:22:29;;;;;;;8.67;2.03;;;11.40;99.90;;;;;;4994723;28;20335;-88
2023/10/16 09:24:58;;;;;;;10.63;2.13;;;11.40;99.90;;;;;;4994897;28;20308;-87
2023/10/16 09:27:30;;;;;;;10.47;2.13;;;11.40;99.90;;;;;;4994894;28;20108;-88
2023/10/16 09:30:00;;;;;;;9.10;2.93;;;11.50;99.90;;;;;;4994784;28;20278;-88
2023/10/16 09:32:28;;;;;;;10.30;1.97;;;11.50;99.90;;;;;;4995076;28;20712;-87
2023/10/16 09:34:54;;;;;;;15.07;2.53;;;11.60;99.90;;;;;;4994639;28;20669;-88
2023/10/16 09:37:29;;;;;;;12.17;2.20;;;11.70;99.90;;;;;;4994832;28;20286;-86
2023/10/16 09:39:56;;;;;;;6.97;2.03;;;11.80;99.90;;;;;;4994302;28;20046;-86
2023/10/16 09:42:24;;;;;;;10.67;1.73;;;11.80;99.90;;;;;;4994328;28;20297;-87
2023/10/16 09:44:59;;;;;;;21.70;3.07;;;11.90;99.90;;;;;;4994305;28;20297;-86
2023/10/16 09:47:27;;;;;;;8.90;2.10;;;11.90;99.90;;;;;;4994574;28;20293;-86
2023/10/16 09:49:55;;;;;;;7.00;1.73;;;11.90;99.90;;;;;;4993149;28;20348;-84
2023/10/16 09:52:22;;;;;;;8.13;2.37;;;11.90;99.90;;;;;;4994444;28;20372;-86
2023/10/16 09:54:48;;;;;;;10.20;2.37;;;12.00;99.90;;;;;;4994107;28;20336;-87
2023/10/16 09:57:27;;;;;;;10.57;1.90;;;12.00;99.90;;;;;;4994297;28;20285;-87
2023/10/16 10:02:42;;;;;;;10.00;1.70;;;12.00;99.90;;;;;;4994074;28;20282;-87
2023/10/16 10:05:12;;;;;;;7.33;1.67;;;12.00;99.90;;;;;;4994050;28;20297;-85
2023/10/16 10:07:47;;;;;;;10.73;1.83;;;11.90;99.90;;;;;;4977062;28;20289;-86
2023/10/16 10:13:10;;;;;;;9.13;1.60;;;11.70;99.90;;;;;;4993876;28;20061;-86
2023/10/16 10:15:45;;;;;;;5.57;1.50;;;11.70;99.90;;;;;;4993699;28;20318;-82
2023/10/16 10:18:32;;;;;;;8.40;1.80;;;11.60;99.90;;;;;;4994460;28;20285;-86
2023/10/16 10:21:11;;;;;;;7.23;1.90;;;11.60;99.90;;;;;;4993983;28;20416;-86
2023/10/16 10:23:38;;;;;;;10.40;1.70;;;11.60;99.90;;;;;;4993690;28;20820;-85
2023/10/16 10:26:07;;;;;;;10.13;2.73;;;11.60;99.90;;;;;;4993726;28;20305;-87
2023/10/16 10:28:36;;;;;;;9.30;2.20;;;11.70;99.90;;;;;;4993987;28;20629;-86
2023/10/16 10:31:05;;;;;;;12.70;2.30;;;11.70;99.90;;;;;;4995425;28;20289;-86
2023/10/16 10:33:57;;;;;;;9.70;2.23;;;11.80;99.90;;;;;;4995085;28;20285;-87
2023/10/16 10:36:34;;;;;;;9.60;2.53;;;11.90;99.90;;;;;;4998987;28;20304;-86
2023/10/16 10:42:03;;;;;;;8.20;1.80;;;11.90;99.90;;;;;;4993533;28;20286;-87
2023/10/16 10:44:35;;;;;;;11.30;2.10;;;11.90;99.90;;;;;;4993626;28;20384;-86
2023/10/16 10:47:14;;;;;;;9.93;2.20;;;11.90;99.90;;;;;;4993436;28;20289;-87
2023/10/16 10:49:43;;;;;;;10.63;2.10;;;12.00;99.90;;;;;;4993871;28;20788;-87
2023/10/16 10:52:12;;;;;;;8.33;2.20;;;12.00;99.90;;;;;;4994036;28;20286;-88
2023/10/16 10:54:44;;;;;;;6.77;2.00;;;12.00;99.90;;;;;;4994016;28;20284;-88
2023/10/16 10:57:22;;;;;;;8.00;2.10;;;12.10;99.90;;;;;;4993653;28;20277;-88
2023/10/16 10:59:48;;;;;;;10.50;2.13;;;12.10;99.90;;;;;;4992484;28;20289;-88
2023/10/16 11:04:47;;;;;;;9.33;2.10;;;12.20;99.90;;;;;;4992296;28;20790;-87
2023/10/16 11:08:17;;;;;;;8.83;1.60;;;12.20;99.90;;;;;;4993634;28;20392;-88
2023/10/16 11:10:02;;;;;;;5.80;2.07;;;12.20;99.90;;;;;;4989391;28;20308;-88
2023/10/16 11:12:30;;;;;;;6.50;1.70;;;12.20;99.90;;;;;;4993663;28;20773;-88
2023/10/16 11:14:56;;;;;;;12.47;3.10;;;12.20;99.90;;;;;;4993492;28;20380;-88
2023/10/16 11:17:33;;;;;;;6.83;1.50;;;12.20;99.90;;;;;;4993681;28;20285;-88
2023/10/16 11:20:11;;;;;;;8.23;1.67;;;12.20;99.90;;;;;;4993090;28;20690;-88
2023/10/16 11:22:43;;;;;;;7.67;1.70;;;12.20;99.90;;;;;;4995783;28;20273;-88
2023/10/16 11:25:12;;;;;;;8.43;1.57;;;12.20;99.90;;;;;;4997107;28;20308;-88
2023/10/16 11:27:41;;;;;;;7.23;1.70;;;12.30;99.90;;;;;;4997104;28;20376;-88
2023/10/16 11:30:18;;;;;;;7.87;1.93;;;12.30;99.90;;;;;;4996747;28;20296;-88
2023/10/16 11:32:47;;;;;;;6.07;1.77;;;12.40;99.90;;;;;;4996539;28;20293;-80
2023/10/16 11:35:17;;;;;;;6.37;1.53;;;12.50;99.90;;;;;;4997352;28;20340;-88
2023/10/16 11:37:44;;;;;;;7.53;1.40;;;12.60;99.90;;;;;;4996981;28;20289;-88
2023/10/16 11:40:19;;;;;;;8.53;1.67;;;12.60;99.90;;;;;;4995977;28;20315;-88
2023/10/16 11:42:48;;;;;;;6.37;1.60;;;12.60;99.90;;;;;;4996609;28;20286;-83
2023/10/16 11:45:19;;;;;;;7.07;1.70;;;12.60;99.90;;;;;;4996564;28;20721;-87
2023/10/16 11:48:03;;;;;;;6.17;1.57;;;12.60;99.90;;;;;;4996571;28;20372;-82
2023/10/16 11:50:38;;;;;;;8.43;1.60;;;12.60;99.90;;;;;;4996884;28;20331;-88
2023/10/16 11:53:07;;;;;;;;;;;12.70;99.90;;;;;;4995888;28;20281;-89
2023/10/16 11:55:36;;;;;;;6.47;1.67;;;12.60;99.90;;;;;;4996546;28;19926;-89
2023/10/16 11:58:10;;;;;;;6.57;1.53;;;12.60;99.90;;;;;;4996119;28;20289;-89
2023/10/16 12:00:36;;;;;;;6.17;2.00;;;12.60;99.90;;;;;;4996565;28;20320;-89
2023/10/16 12:03:07;;;;;;;7.70;1.60;;;12.60;99.90;;;;;;4996434;28;20320;-89
2023/10/16 12:05:36;;;;;;;5.77;1.77;;;12.60;99.90;;;;;;4996316;28;20593;-88
2023/10/16 12:08:05;;;;;;;5.87;1.70;;;12.70;99.90;;;;;;4995121;28;20296;-88
2023/10/16 12:10:33;;;;;;;8.47;1.97;;;12.70;99.90;;;;;;4996125;28;20273;-88
2023/10/16 12:13:00;;;;;;;8.37;1.30;;;12.70;99.90;;;;;;4996091;28;20775;-88
2023/10/16 12:15:26;;;;;;;5.87;1.33;;;12.70;99.90;;;;;;4995642;28;20418;-88
2023/10/16 12:17:55;;;;;;;6.27;1.70;;;12.70;99.90;;;;;;4996365;28;20286;-87
2023/10/16 12:20:21;;;;;;;6.50;1.70;;;12.70;99.90;;;;;;4996183;28;20109;-88
2023/10/16 12:22:49;;;;;;;11.50;1.90;;;12.70;99.90;;;;;;4995672;28;20682;-88
2023/10/16 12:25:15;;;;;;;8.13;2.00;;;12.70;99.90;;;;;;4994858;28;20368;-87
2023/10/16 12:27:41;;;;;;;7.40;1.90;;;12.70;99.90;;;;;;4996377;28;20281;-88
2023/10/16 12:30:13;;;;;;;6.47;1.60;;;12.70;99.90;;;;;;4978519;28;20070;-88
2023/10/16 12:32:40;;;;;;;9.00;1.97;;;12.70;99.90;;;;;;4995486;28;20482;-87
2023/10/16 12:35:08;;;;;;;8.80;2.00;;;12.60;99.90;;;;;;4995124;28;20777;-88
2023/10/16 12:37:34;;;;;;;8.80;1.90;;;12.60;99.90;;;;;;4995763;28;20364;-87
2023/10/16 12:40:24;;;;;;;6.43;2.10;;;12.60;99.90;;;;;;4995742;28;20369;-87
2023/10/16 12:42:46;;;;;;;7.30;2.20;;;12.50;99.90;;;;;;4995898;28;20056;-87
2023/10/16 12:45:12;;;;;;;9.63;2.30;;;12.50;99.90;;;;;;4999798;28;20401;-88
2023/10/16 12:47:38;;;;;;;8.67;1.63;;;12.60;99.90;;;;;;4995441;28;20042;-88
2023/10/16 12:50:05;;;;;;;7.60;1.57;;;12.50;99.90;;;;;;4995189;28;20046;-86
2023/10/16 12:52:31;;;;;;;7.33;1.83;;;12.60;99.90;;;;;;4995783;28;20056;-88
2023/10/16 12:55:00;;;;;;;5.67;2.10;;;12.60;99.90;;;;;;4978250;28;20358;-86
2023/10/16 12:57:28;;;;;;;7.70;2.30;;;12.60;99.90;;;;;;4995400;28;20284;-86
2023/10/16 12:59:56;;;;;;;8.83;1.90;;;12.60;99.90;;;;;;4995271;28;20320;-85
2023/10/16 13:02:28;;;;;;;8.53;1.70;;;12.60;99.90;;;;;;4995272;28;20321;-86
2023/10/16 13:04:55;;;;;;;5.53;1.80;;;12.60;99.90;;;;;;4995256;28;20302;-84
2023/10/16 13:07:24;;;;;;;6.20;1.87;;;12.70;99.90;;;;;;4995283;28;20372;-86
2023/10/16 13:09:53;;;;;;;7.10;1.30;;;12.70;99.90;;;;;;4995165;28;20364;-86
2023/10/16 13:12:21;;;;;;;6.97;1.70;;;12.70;99.90;;;;;;4995111;28;20320;-86
2023/10/16 13:14:49;;;;;;;7.90;1.83;;;12.70;99.90;;;;;;4994096;28;20304;-86
2023/10/16 13:17:15;;;;;;;4.50;1.53;;;12.70;99.90;;;;;;4994597;28;20278;-86
2023/10/16 13:19:41;;;;;;;7.90;1.60;;;12.70;99.90;;;;;;4994098;28;20285;-85
2023/10/16 13:22:11;;;;;;;7.10;2.53;;;12.70;99.90;;;;;;4994879;28;20081;-86
2023/10/16 13:24:37;;;;;;;9.63;1.80;;;12.70;99.90;;;;;;4993343;28;20073;-86
2023/10/16 13:27:06;;;;;;;7.53;1.60;;;12.70;99.90;;;;;;4994460;28;20282;-86
2023/10/16 13:29:32;;;;;;;6.47;1.50;;;12.70;99.90;;;;;;4994555;28;20286;-86
2023/10/16 13:32:00;;;;;;;5.17;1.53;;;12.70;99.90;;;;;;4994660;28;20293;-85
2023/10/16 13:34:26;;;;;;;5.90;1.33;;;12.70;99.90;;;;;;4994073;28;20059;-86
2023/10/16 13:37:08;;;;;;;6.00;1.80;;;12.70;99.90;;;;;;4994617;28;20341;-86
2023/10/16 13:39:38;;;;;;;7.57;1.40;;;12.70;99.90;;;;;;4993600;28;20281;-86
2023/10/16 13:42:08;;;;;;;7.73;1.40;;;12.70;99.90;;;;;;4994254;28;20286;-86
2023/10/16 13:44:37;;;;;;;9.90;1.53;;;12.70;99.90;;;;;;4994050;28;20297;-88
2023/10/16 13:47:06;;;;;;;5.03;1.40;;;12.70;99.90;;;;;;4994384;28;20285;-88
2023/10/16 13:49:36;;;;;;;5.40;1.30;;;12.70;99.90;;;;;;4994593;28;20277;-88
2023/10/16 13:52:03;;;;;;;7.30;1.43;;;12.70;99.90;;;;;;4994307;28;20306;-88
2023/10/16 13:54:31;;;;;;;5.30;1.53;;;12.70;99.90;;;;;;4994568;28;20369;-87
2023/10/16 13:56:57;;;;;;;7.53;2.13;;;12.70;99.90;;;;;;4994695;28;20289;-88
2023/10/16 13:59:23;;;;;;;7.13;1.70;;;12.70;99.90;;;;;;4994309;28;20372;-88
2023/10/16 14:01:49;;;;;;;7.37;1.80;;;12.70;99.90;;;;;;4993277;28;20054;-86
2023/10/16 14:04:21;;;;;;;7.57;1.80;;;12.70;99.90;;;;;;4993988;28;20312;-85
2023/10/16 14:06:54;;;;;;;8.70;1.83;;;12.70;99.90;;;;;;4994127;28;20050;-86
2023/10/16 14:09:27;;;;;;;7.80;1.80;;;12.80;99.90;;;;;;4993764;28;20278;-88
2023/10/16 14:11:54;;;;;;;13.07;2.33;;;12.80;99.90;;;;;;4977989;28;20347;-86
2023/10/16 14:14:21;;;;;;;7.60;2.00;;;12.80;99.90;;;;;;4993849;28;20739;-85
2023/10/16 14:17:03;;;;;;;8.10;2.20;;;12.80;99.90;;;;;;4993165;28;20329;-86
2023/10/16 14:19:29;;;;;;;10.33;1.50;;;12.80;99.90;;;;;;4994149;28;20058;-85
2023/10/16 14:21:57;;;;;;;12.63;2.30;;;12.80;99.90;;;;;;4994044;28;20288;-86
2023/10/16 14:24:25;;;;;;;6.43;1.70;;;12.80;99.90;;;;;;4993485;28;20692;-86
2023/10/16 14:26:55;;;;;;;9.70;1.73;;;12.80;99.90;;;;;;4994089;28;20645;-86
2023/10/16 14:29:21;;;;;;;11.60;1.73;;;12.80;99.90;;;;;;4993470;28;20680;-86
2023/10/16 14:31:50;;;;;;;7.47;1.87;;;12.80;99.90;;;;;;4992930;28;20286;-86
2023/10/16 14:34:22;;;;;;;8.37;1.80;;;12.80;99.90;;;;;;4993437;28;20291;-86
2023/10/16 14:36:52;;;;;;;7.23;1.70;;;12.80;99.90;;;;;;4994028;28;20049;-86
2023/10/16 14:39:20;;;;;;;7.40;1.73;;;12.70;99.90;;;;;;4993644;28;20360;-86
2023/10/16 14:41:47;;;;;;;9.77;2.00;;;12.70;99.90;;;;;;4993860;28;20340;-85
2023/10/16 14:44:13;;;;;;;7.27;1.67;;;12.70;99.90;;;;;;4993293;28;20277;-86
2023/10/16 14:46:39;;;;;;;6.37;2.40;;;12.70;99.90;;;;;;4993632;28;20788;-85
2023/10/16 14:49:08;;;;;;;6.87;1.70;;;12.60;99.90;;;;;;4993298;28;20625;-85
2023/10/16 14:51:40;;;;;;;6.50;1.50;;;12.60;99.90;;;;;;4993791;28;20294;-85
2023/10/16 14:54:10;;;;;;;6.87;1.83;;;12.60;99.90;;;;;;4993541;28;20299;-87